Time;durP1;ratioP1;P1;durP2;ratioP2;P2;SDS_P1;SDS_P2;PMS_P1;PMS_P2;Temp;Humidity;BMP_temperature;BMP_pressure;BME280_temperature;BME280_humidity;BME280_pressure;Samples;Min_cycle;Max_cycle;Signal;HPM_P1;HPM_P2
2023/01/31 00:01:22;;;;;;;23.33;19.67;;;4.10;84.40;;;;;;10869303;32;20046;-76
2023/01/31 00:07:25;;;;;;;31.98;22.85;;;4.10;84.20;;;;;;10860814;32;20079;-75
2023/01/31 00:13:27;;;;;;;42.80;34.75;;;4.00;84.30;;;;;;10868723;32;20062;-76
2023/01/31 00:19:29;;;;;;;39.20;30.48;;;4.10;84.20;;;;;;10868546;32;20042;-75
2023/01/31 00:25:31;;;;;;;29.02;22.02;;;4.10;84.00;;;;;;10897691;27;20062;-76
2023/01/31 00:31:34;;;;;;;32.42;24.60;;;4.20;84.10;;;;;;10905639;32;20012;-77
2023/01/31 00:37:36;;;;;;;26.17;20.27;;;4.00;84.00;;;;;;10891580;32;20085;-76
2023/01/31 00:43:38;;;;;;;24.87;18.85;;;3.90;84.20;;;;;;10901212;32;20409;-76
2023/01/31 00:49:40;;;;;;;30.98;22.17;;;3.90;83.90;;;;;;10891723;32;20042;-76
2023/01/31 00:55:42;;;;;;;30.75;25.88;;;3.70;83.80;;;;;;10904570;32;20007;-74
2023/01/31 01:01:45;;;;;;;23.25;17.80;;;3.50;84.40;;;;;;10904664;32;20046;-74
2023/01/31 01:07:47;;;;;;;31.95;23.05;;;3.70;84.20;;;;;;10904358;32;20038;-74
2023/01/31 01:13:50;;;;;;;31.30;23.40;;;3.50;84.30;;;;;;10900788;32;20028;-74
2023/01/31 01:19:52;;;;;;;30.75;21.23;;;3.50;84.10;;;;;;10904396;32;20046;-74
2023/01/31 01:25:54;;;;;;;26.95;17.90;;;3.20;84.30;;;;;;10890709;32;20054;-74
2023/01/31 01:31:56;;;;;;;27.55;18.40;;;3.40;84.40;;;;;;10890681;32;20043;-75
2023/01/31 01:37:58;;;;;;;39.47;30.48;;;3.60;84.10;;;;;;10903903;32;20019;-74
2023/01/31 01:44:24;;;;;;;27.30;18.10;;;3.30;83.60;;;;;;10903816;32;20390;-74
2023/01/31 01:50:41;;;;;;;24.12;17.52;;;3.00;84.10;;;;;;10890503;32;20051;-76
2023/01/31 01:56:47;;;;;;;33.17;25.20;;;2.90;84.30;;;;;;10903602;32;20011;-76
2023/01/31 02:02:53;;;;;;;32.28;24.83;;;2.90;84.00;;;;;;10886335;32;20349;-76
2023/01/31 02:08:58;;;;;;;35.40;26.70;;;2.70;84.30;;;;;;10910224;32;20042;-76
2023/01/31 02:15:01;;;;;;;29.45;24.80;;;2.90;84.50;;;;;;10910455;32;20042;-76
2023/01/31 02:21:08;;;;;;;24.80;19.75;;;3.20;84.40;;;;;;10910203;32;20042;-76
2023/01/31 02:27:48;;;;;;;19.65;16.35;;;3.20;84.10;;;;;;10905901;32;20023;-76
2023/01/31 02:34:13;;;;;;;20.83;16.30;;;3.10;84.20;;;;;;10909938;32;20050;-76
2023/01/31 02:40:53;;;;;;;49.70;36.97;;;2.90;84.10;;;;;;10909537;32;20011;-75
2023/01/31 02:47:26;;;;;;;46.35;34.50;;;2.60;83.80;;;;;;10719289;33;20466;-76
2023/01/31 02:53:52;;;;;;;23.20;18.75;;;2.40;84.10;;;;;;10720405;33;20156;-75
2023/01/31 02:59:55;;;;;;;33.58;26.23;;;2.40;84.30;;;;;;10708199;33;20052;-76
2023/01/31 03:06:32;;;;;;;40.72;28.73;;;2.30;84.20;;;;;;10720306;33;20029;-75
2023/01/31 03:13:09;;;;;;;33.13;25.37;;;2.30;84.60;;;;;;10719687;33;20029;-75
2023/01/31 03:19:33;;;;;;;22.80;18.02;;;2.60;84.30;;;;;;10736150;32;20053;-75
2023/01/31 03:25:37;;;;;;;19.15;14.25;;;2.40;84.40;;;;;;10903315;32;20023;-75
2023/01/31 03:31:57;;;;;;;26.70;19.67;;;2.60;84.40;;;;;;10907618;32;20020;-75
2023/01/31 03:38:24;;;;;;;27.10;20.17;;;2.60;84.40;;;;;;10907494;32;20023;-75
2023/01/31 03:44:31;;;;;;;38.30;28.75;;;2.60;84.40;;;;;;10902941;32;20160;-75
2023/01/31 03:50:38;;;;;;;44.67;36.83;;;2.60;84.30;;;;;;10893924;32;20440;-75
2023/01/31 03:56:51;;;;;;;36.50;29.05;;;2.60;84.30;;;;;;10902868;32;20432;-75
2023/01/31 04:03:07;;;;;;;26.75;21.67;;;2.50;84.50;;;;;;10906567;32;20019;-75
2023/01/31 04:09:10;;;;;;;31.85;25.30;;;2.60;84.50;;;;;;10902811;32;20023;-75
2023/01/31 04:15:13;;;;;;;24.58;21.08;;;2.70;84.60;;;;;;10904844;32;20069;-75
2023/01/31 04:21:15;;;;;;;22.08;16.48;;;2.70;84.30;;;;;;10906110;32;20023;-75
2023/01/31 04:27:17;;;;;;;21.87;15.55;;;2.50;84.30;;;;;;10905193;32;20047;-75
2023/01/31 04:33:19;;;;;;;28.08;20.67;;;2.20;84.50;;;;;;10905572;32;20053;-75
2023/01/31 04:39:21;;;;;;;27.50;21.98;;;2.30;84.90;;;;;;10905368;32;20054;-74
2023/01/31 04:45:23;;;;;;;27.92;21.20;;;2.60;84.70;;;;;;10905094;32;20015;-74
2023/01/31 04:51:25;;;;;;;27.45;22.00;;;2.70;84.40;;;;;;10905051;32;20345;-75
2023/01/31 04:57:26;;;;;;;33.20;23.77;;;2.90;84.30;;;;;;10904922;32;20050;-74
2023/01/31 05:03:30;;;;;;;31.70;27.35;;;3.10;83.70;;;;;;10900639;32;20023;-74
2023/01/31 05:09:32;;;;;;;25.27;17.37;;;2.80;83.80;;;;;;10903318;32;20307;-74
2023/01/31 05:15:34;;;;;;;29.25;22.92;;;2.60;83.80;;;;;;10904375;32;20028;-74
2023/01/31 05:21:53;;;;;;;18.90;14.38;;;2.60;84.30;;;;;;10902964;32;20071;-74
2023/01/31 05:27:56;;;;;;;34.70;23.03;;;2.50;83.90;;;;;;10904138;32;20315;-74
2023/01/31 05:33:58;;;;;;;30.42;25.55;;;2.20;84.30;;;;;;10904154;32;20015;-74
2023/01/31 05:40:00;;;;;;;30.58;23.77;;;2.40;84.50;;;;;;10881148;32;20027;-74
2023/01/31 05:46:02;;;;;;;33.92;22.25;;;2.70;84.20;;;;;;10911407;32;20024;-74
2023/01/31 05:52:04;;;;;;;34.38;25.05;;;2.60;84.00;;;;;;10911207;32;20019;-74
2023/01/31 05:58:06;;;;;;;30.25;22.48;;;2.40;84.00;;;;;;10908749;32;20057;-74
2023/01/31 06:04:09;;;;;;;25.52;21.20;;;2.20;84.50;;;;;;10910756;32;20021;-74
2023/01/31 06:10:11;;;;;;;27.70;21.27;;;2.50;84.60;;;;;;10910712;32;20038;-74
2023/01/31 06:16:13;;;;;;;20.73;16.42;;;3.00;84.70;;;;;;10910473;32;20019;-74
2023/01/31 06:22:15;;;;;;;31.23;25.20;;;3.30;83.70;;;;;;10906184;32;20027;-74
2023/01/31 06:28:31;;;;;;;27.45;19.62;;;3.20;84.00;;;;;;10909961;32;20046;-74
2023/01/31 06:34:32;;;;;;;22.95;19.58;;;3.60;83.70;;;;;;10909624;32;20031;-75
2023/01/31 06:40:35;;;;;;;34.22;23.55;;;3.70;82.90;;;;;;10909608;32;20034;-74
2023/01/31 06:47:02;;;;;;;24.98;19.02;;;3.70;82.60;;;;;;10909316;32;20047;-74
2023/01/31 06:53:04;;;;;;;34.65;25.10;;;3.80;82.20;;;;;;10908724;32;20031;-74
2023/01/31 06:59:06;;;;;;;38.05;31.45;;;3.60;82.70;;;;;;10895562;32;20420;-74
2023/01/31 07:05:08;;;;;;;31.75;24.23;;;3.80;82.40;;;;;;10908283;32;20020;-74
2023/01/31 07:11:10;;;;;;;27.42;22.27;;;4.00;82.00;;;;;;10906632;32;20361;-74
2023/01/31 07:17:12;;;;;;;33.03;27.37;;;4.00;82.00;;;;;;10905500;32;20016;-74
2023/01/31 07:23:14;;;;;;;47.03;37.58;;;3.70;82.00;;;;;;10907705;32;20325;-74
2023/01/31 07:29:16;;;;;;;39.00;27.40;;;3.70;82.70;;;;;;10907906;32;20448;-74
2023/01/31 07:35:19;;;;;;;32.03;25.00;;;4.00;82.50;;;;;;10907591;32;20065;-74
2023/01/31 07:41:21;;;;;;;27.48;23.35;;;4.10;82.30;;;;;;10904201;32;20061;-74
2023/01/31 07:47:23;;;;;;;39.10;29.27;;;3.70;82.20;;;;;;10901885;32;20015;-74
2023/01/31 07:53:28;;;;;;;39.10;30.60;;;3.90;83.30;;;;;;10905656;32;20027;-74
2023/01/31 07:59:30;;;;;;;23.35;18.27;;;4.30;83.10;;;;;;10893459;32;20010;-74
2023/01/31 08:05:32;;;;;;;38.28;30.65;;;4.60;82.80;;;;;;10891081;32;20035;-74
2023/01/31 08:11:34;;;;;;;30.67;22.27;;;4.70;82.90;;;;;;10905848;32;20042;-74
2023/01/31 08:17:36;;;;;;;50.72;38.08;;;4.60;82.80;;;;;;10902971;32;20038;-75
2023/01/31 08:25:29;;;;;;;46.35;32.17;;;4.50;83.50;;;;;;10622303;32;12452871;-74
2023/01/31 08:31:31;;;;;;;45.25;35.92;;;4.80;83.70;;;;;;10969879;32;20041;-74
2023/01/31 08:37:33;;;;;;;45.70;30.70;;;5.10;83.90;;;;;;10944252;32;20040;-74
2023/01/31 08:43:36;;;;;;;41.58;32.03;;;5.20;83.70;;;;;;10969130;32;20045;-74
2023/01/31 08:49:39;;;;;;;32.80;25.10;;;5.10;83.50;;;;;;10998498;32;20022;-74
2023/01/31 08:55:41;;;;;;;31.15;22.62;;;4.90;83.80;;;;;;11008331;32;20014;-74
2023/01/31 09:01:45;;;;;;;36.92;28.05;;;4.50;83.70;;;;;;11010439;32;20443;-74
2023/01/31 09:07:47;;;;;;;38.35;30.52;;;4.40;84.50;;;;;;11010302;32;20412;-74
2023/01/31 09:13:50;;;;;;;38.78;27.55;;;4.60;85.10;;;;;;11007178;32;20049;-74
2023/01/31 09:19:52;;;;;;;24.33;16.20;;;4.50;85.10;;;;;;10995973;32;20458;-74
2023/01/31 09:25:55;;;;;;;37.92;27.15;;;4.50;85.10;;;;;;10995935;32;20146;-74
2023/01/31 09:31:57;;;;;;;53.42;37.60;;;4.70;85.80;;;;;;11004735;32;20026;-74
2023/01/31 09:37:59;;;;;;;28.80;20.80;;;5.10;85.40;;;;;;10965902;32;20416;-74
2023/01/31 09:44:23;;;;;;;34.40;24.80;;;4.90;84.90;;;;;;10969796;32;20332;-74
2023/01/31 09:50:45;;;;;;;33.35;22.45;;;4.70;85.10;;;;;;10814875;33;20410;-74
2023/01/31 09:57:04;;;;;;;35.67;22.52;;;4.70;85.60;;;;;;10829116;32;20043;-75
2023/01/31 10:03:37;;;;;;;35.47;29.77;;;4.70;85.20;;;;;;10816568;32;20064;-75
2023/01/31 10:09:55;;;;;;;27.42;21.35;;;5.10;85.70;;;;;;10828800;32;20012;-75
2023/01/31 10:16:12;;;;;;;57.35;36.05;;;5.40;85.30;;;;;;10815904;32;20035;-76
2023/01/31 10:22:22;;;;;;;61.20;41.28;;;5.60;85.70;;;;;;10824189;32;20028;-76
2023/01/31 10:28:53;;;;;;;78.75;60.00;;;5.70;86.20;;;;;;10960896;32;20049;-76
2023/01/31 10:35:21;;;;;;;50.63;36.58;;;5.80;86.40;;;;;;10954833;32;20022;-76
2023/01/31 10:41:52;;;;;;;45.58;33.65;;;5.90;86.40;;;;;;10828160;32;20074;-76
2023/01/31 10:48:01;;;;;;;67.72;46.45;;;6.00;86.60;;;;;;10822473;32;20042;-77
2023/01/31 10:54:18;;;;;;;52.65;38.92;;;6.20;86.50;;;;;;10823542;32;20331;-76
2023/01/31 11:00:27;;;;;;;58.63;35.80;;;6.30;86.10;;;;;;10814330;32;20067;-77
2023/01/31 11:06:29;;;;;;;46.50;34.53;;;6.50;86.10;;;;;;10815161;32;20418;-77
2023/01/31 11:12:51;;;;;;;66.00;47.28;;;6.70;86.00;;;;;;10810893;33;20398;-77
2023/01/31 11:18:54;;;;;;;80.57;44.10;;;7.00;85.80;;;;;;10963460;32;20022;-76
2023/01/31 11:24:58;;;;;;;47.65;34.42;;;7.10;85.60;;;;;;10962319;32;20495;-76
2023/01/31 11:31:02;;;;;;;68.97;44.63;;;7.30;85.30;;;;;;10966031;32;20035;-77
2023/01/31 11:37:16;;;;;;;64.05;45.33;;;7.60;85.00;;;;;;10979608;32;20019;-76
2023/01/31 11:43:18;;;;;;;55.72;39.25;;;7.70;84.40;;;;;;10978715;32;20058;-76
2023/01/31 11:49:28;;;;;;;57.13;37.60;;;7.90;84.60;;;;;;10979175;32;20023;-76
2023/01/31 11:55:37;;;;;;;40.78;28.67;;;8.10;84.30;;;;;;10978861;32;20037;-76
2023/01/31 12:01:59;;;;;;;48.78;30.67;;;8.20;83.70;;;;;;10964885;32;20038;-76
2023/01/31 12:08:02;;;;;;;56.60;38.35;;;8.50;83.70;;;;;;10978703;32;20049;-76
2023/01/31 12:14:15;;;;;;;53.63;34.22;;;8.70;83.40;;;;;;10978168;32;20019;-76
2023/01/31 12:21:02;;;;;;;51.20;32.05;;;8.60;83.20;;;;;;10964614;32;20049;-76
2023/01/31 12:27:27;;;;;;;66.60;39.13;;;8.60;83.00;;;;;;10823655;32;20058;-76
2023/01/31 12:33:52;;;;;;;51.97;36.97;;;8.60;83.40;;;;;;10823908;32;20032;-76
2023/01/31 12:40:14;;;;;;;58.85;39.25;;;8.60;83.30;;;;;;10712071;33;20025;-76
2023/01/31 12:46:22;;;;;;;72.12;41.92;;;8.70;82.90;;;;;;10715087;33;20064;-76
2023/01/31 12:52:48;;;;;;;58.75;43.53;;;8.70;82.80;;;;;;10710754;33;20021;-76
2023/01/31 12:58:58;;;;;;;52.28;38.00;;;8.70;83.60;;;;;;10735389;33;20437;-76
2023/01/31 13:05:42;;;;;;;59.45;41.58;;;8.70;83.80;;;;;;10819368;33;20024;-76
2023/01/31 13:11:54;;;;;;;55.33;40.47;;;8.70;83.90;;;;;;10683536;33;20017;-76
2023/01/31 13:18:01;;;;;;;56.47;38.45;;;8.70;84.70;;;;;;10754559;33;20032;-74
2023/01/31 13:24:14;;;;;;;55.42;39.42;;;8.80;84.80;;;;;;10752902;33;20055;-74
2023/01/31 13:30:47;;;;;;;58.70;42.72;;;9.00;84.70;;;;;;10753707;33;20343;-74
2023/01/31 13:37:01;;;;;;;53.28;34.35;;;9.10;84.60;;;;;;10717383;33;20024;-74
2023/01/31 13:43:12;;;;;;;52.62;40.53;;;9.00;84.60;;;;;;10820522;32;20039;-74
2023/01/31 13:49:35;;;;;;;63.30;41.05;;;9.00;84.80;;;;;;10792135;32;20036;-74
2023/01/31 13:55:41;;;;;;;49.95;33.38;;;8.90;84.70;;;;;;10794600;33;20036;-74
2023/01/31 14:01:48;;;;;;;51.47;33.60;;;8.90;85.20;;;;;;10793695;33;20343;-74
2023/01/31 14:08:25;;;;;;;64.25;43.25;;;8.90;85.00;;;;;;10789750;33;20430;-73
2023/01/31 14:14:37;;;;;;;52.78;35.30;;;9.00;84.80;;;;;;10931849;32;20026;-73
2023/01/31 14:20:39;;;;;;;43.40;29.37;;;9.10;84.90;;;;;;10942598;32;20027;-74
2023/01/31 14:26:41;;;;;;;34.40;23.48;;;9.10;85.00;;;;;;10931275;32;20027;-73
2023/01/31 14:32:48;;;;;;;40.65;29.42;;;9.10;85.10;;;;;;10941776;32;20023;-73
2023/01/31 14:39:09;;;;;;;32.20;21.90;;;9.10;85.60;;;;;;10940770;32;20041;-74
2023/01/31 14:45:29;;;;;;;29.00;19.42;;;9.10;85.50;;;;;;10944006;32;20028;-74
2023/01/31 14:51:43;;;;;;;29.08;20.00;;;9.00;86.10;;;;;;10929441;32;20019;-74
2023/01/31 14:57:47;;;;;;;32.45;22.27;;;9.20;86.20;;;;;;10957706;32;20042;-74
2023/01/31 15:03:57;;;;;;;29.90;17.45;;;9.40;86.30;;;;;;10960834;32;20027;-73
2023/01/31 15:10:03;;;;;;;20.37;11.73;;;9.40;86.40;;;;;;10953442;32;20027;-74
2023/01/31 15:16:36;;;;;;;26.17;17.58;;;9.50;86.50;;;;;;10945964;32;20069;-74
2023/01/31 15:22:41;;;;;;;32.42;22.52;;;9.40;87.00;;;;;;10820903;32;20032;-74
2023/01/31 15:28:44;;;;;;;23.95;16.15;;;9.30;87.70;;;;;;10813506;32;20466;-76
2023/01/31 15:34:53;;;;;;;34.80;23.70;;;9.60;87.70;;;;;;10825415;32;20086;-76
2023/01/31 15:41:45;;;;;;;31.40;23.30;;;10.10;86.80;;;;;;10825352;32;20046;-76
2023/01/31 15:48:07;;;;;;;29.60;20.17;;;10.20;86.60;;;;;;10676624;33;20120;-76
2023/01/31 15:54:14;;;;;;;22.42;16.80;;;10.00;87.10;;;;;;10679256;33;20029;-76
2023/01/31 16:00:39;;;;;;;39.47;28.27;;;9.70;87.50;;;;;;10715169;33;20021;-76
2023/01/31 16:06:41;;;;;;;37.85;25.45;;;9.30;88.20;;;;;;10749833;33;20152;-76
2023/01/31 16:12:46;;;;;;;39.10;26.67;;;9.10;88.80;;;;;;10749721;33;20047;-76
2023/01/31 16:18:52;;;;;;;39.70;27.73;;;8.90;89.00;;;;;;10751126;33;20447;-74
2023/01/31 16:25:00;;;;;;;18.00;11.93;;;8.70;89.30;;;;;;10829061;27;20418;-74
2023/01/31 16:31:05;;;;;;;28.23;20.75;;;8.70;89.60;;;;;;10786223;33;20043;-74
2023/01/31 16:37:11;;;;;;;38.05;26.20;;;8.50;89.50;;;;;;10769892;33;20093;-74
2023/01/31 16:43:23;;;;;;;40.92;29.67;;;8.30;89.80;;;;;;10823333;32;20337;-74
2023/01/31 16:49:30;;;;;;;30.60;21.67;;;8.20;90.00;;;;;;10829479;33;20046;-74
2023/01/31 16:55:32;;;;;;;27.50;18.42;;;8.20;90.20;;;;;;10829554;33;20020;-74
2023/01/31 17:01:34;;;;;;;23.40;18.27;;;8.20;90.20;;;;;;10829356;33;20035;-73
2023/01/31 17:07:36;;;;;;;27.48;22.40;;;8.10;90.00;;;;;;10828863;33;20295;-74
2023/01/31 17:13:38;;;;;;;34.50;28.00;;;7.90;90.00;;;;;;10815555;33;20016;-73
2023/01/31 17:19:40;;;;;;;50.05;33.55;;;7.90;89.90;;;;;;10828520;32;20398;-74
2023/01/31 17:25:43;;;;;;;28.33;22.77;;;7.90;89.70;;;;;;10828904;33;20054;-73
2023/01/31 17:31:45;;;;;;;44.70;32.28;;;7.90;89.30;;;;;;10826433;33;20055;-74
2023/01/31 17:37:47;;;;;;;52.67;33.75;;;7.70;89.50;;;;;;10827477;33;20082;-74
2023/01/31 17:43:50;;;;;;;42.78;30.55;;;7.70;89.60;;;;;;10828249;33;20028;-73
2023/01/31 17:49:53;;;;;;;35.85;26.70;;;7.70;89.60;;;;;;10828384;33;20024;-75
2023/01/31 17:55:55;;;;;;;46.15;33.35;;;7.70;89.30;;;;;;10827887;32;20046;-76
2023/01/31 18:01:59;;;;;;;30.62;23.17;;;7.60;89.30;;;;;;10815249;33;20082;-76
2023/01/31 18:08:01;;;;;;;48.25;36.80;;;7.70;89.30;;;;;;10802482;33;20370;-76
2023/01/31 18:14:03;;;;;;;34.28;25.45;;;7.50;88.80;;;;;;10824110;33;20430;-76
2023/01/31 18:20:06;;;;;;;53.08;36.85;;;7.20;89.20;;;;;;10827860;32;20035;-76
2023/01/31 18:26:10;;;;;;;35.25;28.35;;;7.20;89.20;;;;;;10827700;33;20020;-76
2023/01/31 18:32:12;;;;;;;40.70;29.15;;;7.20;89.40;;;;;;10798266;33;20406;-76
2023/01/31 18:38:14;;;;;;;42.55;31.08;;;7.20;89.30;;;;;;10827313;33;20326;-76
2023/01/31 18:44:17;;;;;;;35.92;26.33;;;7.20;89.20;;;;;;10827003;33;20062;-76
2023/01/31 18:50:19;;;;;;;54.72;37.95;;;7.20;89.10;;;;;;10826772;33;20016;-76
2023/01/31 18:56:22;;;;;;;55.33;36.80;;;7.20;89.00;;;;;;10826841;33;20020;-76
2023/01/31 19:02:24;;;;;;;31.73;22.67;;;7.20;88.80;;;;;;10800722;33;20032;-73
2023/01/31 19:08:26;;;;;;;58.08;39.58;;;7.20;88.60;;;;;;10812446;33;20019;-73
2023/01/31 19:14:31;;;;;;;40.95;28.58;;;7.20;88.40;;;;;;10825073;33;20028;-73
2023/01/31 19:20:33;;;;;;;49.60;35.20;;;7.10;88.20;;;;;;10798067;33;20055;-73
2023/01/31 19:26:37;;;;;;;65.78;48.38;;;6.90;88.20;;;;;;10805859;33;20019;-73
2023/01/31 19:32:39;;;;;;;48.78;32.10;;;6.70;88.20;;;;;;10803164;33;20028;-73
2023/01/31 19:38:41;;;;;;;48.03;38.65;;;6.80;88.40;;;;;;10810932;33;20024;-74
2023/01/31 19:44:44;;;;;;;40.03;31.37;;;6.90;88.40;;;;;;10823750;33;20036;-73
2023/01/31 19:50:50;;;;;;;44.75;34.72;;;6.80;88.60;;;;;;10789964;33;20047;-73
2023/01/31 19:56:53;;;;;;;51.67;37.05;;;6.70;88.60;;;;;;10788566;33;20024;-73
2023/01/31 20:02:57;;;;;;;44.17;32.85;;;6.60;88.70;;;;;;10779332;33;20070;-73
2023/01/31 20:09:03;;;;;;;47.22;37.25;;;6.60;89.00;;;;;;10811656;33;20024;-74
2023/01/31 20:15:06;;;;;;;35.47;28.62;;;6.60;88.70;;;;;;10798501;33;20021;-73
2023/01/31 20:21:17;;;;;;;39.85;28.12;;;6.50;88.60;;;;;;10820527;33;20047;-74
2023/01/31 20:27:19;;;;;;;43.33;30.55;;;6.50;88.30;;;;;;10811456;33;20047;-73
2023/01/31 20:33:23;;;;;;;31.90;24.17;;;6.40;88.10;;;;;;10788666;33;20040;-74
2023/01/31 20:39:28;;;;;;;31.50;23.12;;;6.30;88.20;;;;;;10791856;33;20078;-73
2023/01/31 20:46:19;;;;;;;37.40;26.60;;;6.30;88.00;;;;;;10815070;33;20028;-73
2023/01/31 20:52:23;;;;;;;28.23;22.98;;;6.20;87.80;;;;;;10817824;33;20069;-74
2023/01/31 20:58:27;;;;;;;51.20;35.72;;;6.10;88.00;;;;;;10815702;33;20023;-73
2023/01/31 21:04:28;;;;;;;27.08;22.30;;;6.20;87.80;;;;;;10787758;33;20033;-74
2023/01/31 21:10:31;;;;;;;36.70;27.42;;;6.20;87.60;;;;;;10793164;33;20334;-74
2023/01/31 21:16:33;;;;;;;48.95;35.63;;;6.00;87.60;;;;;;10786436;33;20043;-73
2023/01/31 21:22:35;;;;;;;38.38;27.33;;;6.00;87.70;;;;;;10772841;33;20059;-73
2023/01/31 21:28:38;;;;;;;51.25;37.60;;;5.90;87.30;;;;;;10762061;33;20029;-73
2023/01/31 21:34:40;;;;;;;35.15;26.98;;;5.90;87.60;;;;;;10792501;33;20012;-73
2023/01/31 21:40:42;;;;;;;30.33;24.40;;;5.90;87.60;;;;;;10792085;33;20021;-73
2023/01/31 21:46:45;;;;;;;45.75;37.72;;;5.80;87.20;;;;;;10792041;33;20315;-73
2023/01/31 21:52:47;;;;;;;39.83;32.33;;;5.60;87.50;;;;;;10779011;33;20421;-74
2023/01/31 21:58:51;;;;;;;41.28;31.62;;;5.70;87.60;;;;;;10790413;33;20386;-74
2023/01/31 22:04:53;;;;;;;37.78;30.50;;;5.70;87.20;;;;;;10778382;33;20051;-74
2023/01/31 22:11:08;;;;;;;38.28;30.85;;;5.70;87.70;;;;;;10778190;33;20386;-74
2023/01/31 22:17:10;;;;;;;37.72;27.37;;;5.60;87.40;;;;;;10791282;33;20021;-74
2023/01/31 22:23:12;;;;;;;33.00;27.10;;;5.70;87.20;;;;;;10790968;33;20042;-74
2023/01/31 22:29:14;;;;;;;32.45;22.83;;;5.50;87.00;;;;;;10787783;33;20418;-73
2023/01/31 22:35:16;;;;;;;35.45;25.75;;;5.50;87.00;;;;;;10790776;33;20025;-73
2023/01/31 22:41:18;;;;;;;31.23;24.60;;;5.40;87.10;;;;;;10790466;33;20052;-74
2023/01/31 22:47:20;;;;;;;36.78;27.45;;;5.40;86.90;;;;;;10790421;33;20054;-74
2023/01/31 22:53:24;;;;;;;43.03;30.00;;;5.40;86.50;;;;;;10790196;33;20017;-73
2023/01/31 22:59:26;;;;;;;36.25;29.60;;;5.20;86.70;;;;;;10789976;33;20035;-73
2023/01/31 23:05:28;;;;;;;38.08;29.45;;;5.10;86.80;;;;;;10776658;33;20024;-73
2023/01/31 23:11:30;;;;;;;60.08;44.90;;;5.20;86.70;;;;;;10776543;33;20020;-73
2023/01/31 23:17:38;;;;;;;41.63;32.90;;;5.30;86.50;;;;;;10789342;33;20043;-73
2023/01/31 23:23:41;;;;;;;36.85;27.98;;;5.30;86.30;;;;;;10789152;33;20331;-73
2023/01/31 23:29:43;;;;;;;33.20;26.87;;;5.20;86.40;;;;;;10771300;33;20385;-73
2023/01/31 23:35:47;;;;;;;42.97;34.00;;;5.10;86.20;;;;;;10788922;33;20016;-73
2023/01/31 23:41:49;;;;;;;39.83;29.45;;;5.10;85.90;;;;;;10788623;33;20033;-73
2023/01/31 23:47:51;;;;;;;40.35;27.02;;;5.10;85.70;;;;;;10788620;33;20013;-73
2023/01/31 23:53:53;;;;;;;29.87;25.40;;;5.10;85.70;;;;;;10788050;33;20021;-73
2023/01/31 23:59:55;;;;;;;35.45;27.25;;;5.10;85.70;;;;;;10774776;33;20032;-73
